createdAt,value
2023-04-23T00:00:49.785Z,98998.88
2023-04-23T00:03:22.870Z,99018.66
2023-04-23T00:05:53.161Z,99014.16
2023-04-23T00:08:21.396Z,99027.81
2023-04-23T00:10:49.384Z,99060.81
2023-04-23T00:13:18.421Z,99074.69
2023-04-23T00:15:46.783Z,99105.53
2023-04-23T00:18:16.916Z,99122.19
2023-04-23T00:20:44.283Z,99126.03
2023-04-23T00:23:11.711Z,99126.03
2023-04-23T00:25:39.182Z,99126.03
2023-04-23T00:28:06.580Z,99126.03
2023-04-23T00:30:35.344Z,99124.09
2023-04-23T00:33:02.769Z,99124.09
2023-04-23T00:35:30.165Z,99124.09
2023-04-23T00:37:57.541Z,99124.09
2023-04-23T00:40:25.129Z,99054.28
2023-04-23T00:42:53.600Z,99054.28
2023-04-23T00:45:21.153Z,99054.28
2023-04-23T00:47:50.698Z,99054.28
2023-04-23T00:50:18.705Z,99054.28
2023-04-23T00:52:46.076Z,99054.28
2023-04-23T00:55:14.965Z,99054.28
2023-04-23T00:57:42.962Z,99054.28
2023-04-23T01:00:13.903Z,99054.28
2023-04-23T01:02:44.290Z,99054.28
2023-04-23T01:05:15.800Z,99054.28
2023-04-23T01:07:45.108Z,99054.28
2023-04-23T01:12:42.208Z,99054.28
2023-04-23T01:15:10.888Z,99054.28
2023-04-23T01:17:38.426Z,99054.28
2023-04-23T01:20:08.311Z,99054.28
2023-04-23T01:22:37.818Z,99054.28
2023-04-23T01:25:08.509Z,99054.28
2023-04-23T01:27:36.089Z,99054.28
2023-04-23T01:30:04.805Z,99054.28
2023-04-23T01:32:33.185Z,99054.28
2023-04-23T01:35:01.168Z,99054.28
2023-04-23T01:37:29.941Z,99054.28
2023-04-23T01:39:59.462Z,99054.28
2023-04-23T01:42:26.865Z,99054.28
2023-04-23T01:44:54.287Z,99054.28
2023-04-23T01:47:22.295Z,99054.28
2023-04-23T01:49:50.085Z,99054.28
2023-04-23T01:52:17.534Z,99054.28
2023-04-23T01:54:44.931Z,99054.28
2023-04-23T01:57:13.714Z,99054.28
2023-04-23T01:59:41.629Z,99054.28
2023-04-23T02:02:13.609Z,99054.28
2023-04-23T02:04:45.155Z,99054.28
2023-04-23T02:07:12.882Z,99054.28
2023-04-23T02:09:40.700Z,99054.28
2023-04-23T02:12:08.146Z,99054.28
2023-04-23T02:14:36.887Z,99054.28
2023-04-23T02:17:04.313Z,99054.28
2023-04-23T02:19:34.497Z,99054.28
2023-04-23T02:22:01.982Z,99054.28
2023-04-23T02:24:29.474Z,99054.28
2023-04-23T02:26:58.113Z,99054.28
2023-04-23T02:29:26.969Z,99054.28
2023-04-23T02:32:00.185Z,99054.28
2023-04-23T02:34:27.712Z,99054.28
2023-04-23T02:36:55.367Z,99054.28
2023-04-23T02:39:22.746Z,99054.28
2023-04-23T02:41:50.759Z,99054.28
2023-04-23T02:44:18.164Z,99054.28
2023-04-23T02:46:46.386Z,99054.28
2023-04-23T02:49:15.418Z,99054.28
2023-04-23T02:51:43.161Z,98910.28
2023-04-23T02:54:11.141Z,98926.28
2023-04-23T02:56:38.673Z,98926.28
2023-04-23T02:59:06.445Z,98926.28
2023-04-23T03:01:33.854Z,98926.28
2023-04-23T03:04:03.666Z,98926.28
2023-04-23T03:06:34.378Z,98926.28
2023-04-23T03:09:01.852Z,98926.28
2023-04-23T03:11:29.224Z,98926.28
2023-04-23T03:13:56.619Z,98926.28
2023-04-23T03:16:24.063Z,98926.28
2023-04-23T03:18:51.493Z,98926.28
2023-04-23T03:21:18.972Z,98926.28
2023-04-23T03:23:47.766Z,98926.28
2023-04-23T03:26:15.197Z,98926.28
2023-04-23T03:28:44.591Z,98926.28
2023-04-23T03:31:12.294Z,98926.28
2023-04-23T03:33:39.676Z,98926.28
2023-04-23T03:36:07.402Z,98961.22
2023-04-23T03:38:34.816Z,98961.22
2023-04-23T03:41:03.514Z,98986.78
2023-04-23T03:43:30.998Z,98990.50
2023-04-23T03:45:58.442Z,98982.00
2023-04-23T03:48:26.142Z,98982.00
2023-04-23T03:50:53.547Z,98982.00
2023-04-23T03:53:21.555Z,98982.00
2023-04-23T03:55:48.994Z,98982.00
2023-04-23T03:58:19.309Z,98982.00
2023-04-23T04:00:47.229Z,98982.00
2023-04-23T04:03:14.847Z,98982.00
2023-04-23T04:05:42.486Z,98982.00
2023-04-23T04:08:09.937Z,98982.00
2023-04-23T04:10:37.431Z,98982.00
2023-04-23T04:13:04.839Z,98982.00
2023-04-23T04:15:33.870Z,98982.00
2023-04-23T04:18:01.449Z,98982.00
2023-04-23T04:20:29.597Z,98982.00
2023-04-23T04:22:57.223Z,98982.00
2023-04-23T04:25:24.744Z,98982.00
2023-04-23T04:27:52.626Z,98982.00
2023-04-23T04:30:19.999Z,98982.00
2023-04-23T04:32:50.814Z,98982.00
2023-04-23T04:35:18.857Z,98982.00
2023-04-23T04:37:46.233Z,98982.00
2023-04-23T04:40:15.185Z,98982.00
2023-04-23T04:42:42.729Z,98982.00
2023-04-23T04:45:11.006Z,98982.00
2023-04-23T04:47:38.426Z,98982.00
2023-04-23T04:50:08.415Z,98982.00
2023-04-23T04:52:38.394Z,98982.00
2023-04-23T04:55:06.940Z,98982.00
2023-04-23T04:57:34.334Z,98982.00
2023-04-23T05:00:05.033Z,98982.00
2023-04-23T05:02:32.614Z,98982.00
2023-04-23T05:05:00.173Z,98982.00
2023-04-23T05:07:28.856Z,98982.00
2023-04-23T05:09:57.911Z,98982.00
2023-04-23T05:12:25.277Z,98982.00
2023-04-23T05:14:54.259Z,98982.00
2023-04-23T05:17:21.810Z,98982.00
2023-04-23T05:19:49.186Z,98982.00
2023-04-23T05:22:18.215Z,98982.00
2023-04-23T05:24:46.995Z,98982.00
2023-04-23T05:27:14.362Z,98982.00
2023-04-23T05:29:41.959Z,98982.00
2023-04-23T05:32:09.415Z,98982.00
2023-04-23T05:34:36.847Z,98982.00
2023-04-23T05:37:04.249Z,98982.00
2023-04-23T05:39:31.594Z,98982.00
2023-04-23T05:42:00.283Z,98982.00
2023-04-23T05:44:27.647Z,98982.00
2023-04-23T05:46:55.240Z,98982.00
2023-04-23T05:49:24.172Z,98982.00
2023-04-23T05:51:51.629Z,98982.00
2023-04-23T05:54:18.988Z,98982.00
2023-04-23T05:56:46.767Z,98982.00
2023-04-23T05:59:15.504Z,98982.00
2023-04-23T06:01:42.998Z,98982.00
2023-04-23T06:04:10.580Z,98982.00
2023-04-23T06:06:38.094Z,98982.00
2023-04-23T06:09:05.604Z,98982.00
2023-04-23T06:11:33.154Z,98982.00
2023-04-23T06:14:00.545Z,98982.00
2023-04-23T06:16:29.409Z,98982.00
2023-04-23T06:18:56.960Z,98982.00
2023-04-23T06:21:26.353Z,98982.00
2023-04-23T06:23:54.549Z,98982.00
2023-04-23T06:26:22.040Z,98982.00
2023-04-23T06:28:49.422Z,98982.00
2023-04-23T06:31:17.028Z,98982.00
2023-04-23T06:33:45.744Z,98982.00
2023-04-23T06:36:14.598Z,98982.00
2023-04-23T06:38:44.558Z,98982.00
2023-04-23T06:41:12.735Z,98982.00
2023-04-23T06:43:40.186Z,98982.00
2023-04-23T06:46:07.546Z,98982.00
2023-04-23T06:48:34.931Z,98982.00
2023-04-23T06:51:03.850Z,98982.00
2023-04-23T06:53:31.199Z,98982.00
2023-04-23T06:55:58.729Z,98982.00
2023-04-23T06:58:31.087Z,98982.00
2023-04-23T07:00:59.844Z,98982.00
2023-04-23T07:03:28.231Z,98982.00
2023-04-23T07:05:55.702Z,98982.00
2023-04-23T07:08:24.488Z,98982.00
2023-04-23T07:10:53.186Z,98982.00
2023-04-23T07:13:20.596Z,98982.00
2023-04-23T07:15:48.932Z,98982.00
2023-04-23T07:18:16.386Z,98982.00
2023-04-23T07:20:44.009Z,98982.00
2023-04-23T07:23:12.063Z,98982.00
2023-04-23T07:25:41.028Z,98982.00
2023-04-23T07:28:08.400Z,98982.00
2023-04-23T07:30:35.798Z,98982.00
2023-04-23T07:33:03.446Z,98982.00
2023-04-23T07:35:30.930Z,98982.00
2023-04-23T07:37:58.433Z,98982.00
2023-04-23T07:40:26.061Z,98982.00
2023-04-23T07:42:54.729Z,98982.00
2023-04-23T07:45:22.141Z,98982.00
2023-04-23T07:47:51.353Z,98982.00
2023-04-23T07:50:18.775Z,98982.00
2023-04-23T07:52:46.220Z,98982.00
2023-04-23T07:55:13.603Z,98982.00
2023-04-23T07:57:41.026Z,98982.00
2023-04-23T08:00:11.296Z,98982.00
2023-04-23T08:02:38.887Z,98982.00
2023-04-23T08:05:08.019Z,98982.00
2023-04-23T08:07:35.680Z,98982.00
2023-04-23T08:10:05.993Z,98982.00
2023-04-23T08:12:35.793Z,98982.00
2023-04-23T08:15:03.388Z,98982.00
2023-04-23T08:17:32.141Z,98982.00
2023-04-23T08:19:59.562Z,98982.00
2023-04-23T08:22:26.945Z,98982.00
2023-04-23T08:24:54.317Z,98982.00
2023-04-23T08:27:22.651Z,98982.00
2023-04-23T08:29:50.324Z,98982.00
2023-04-23T08:32:17.817Z,98982.00
2023-04-23T08:34:46.567Z,98982.00
2023-04-23T08:37:23.092Z,98982.00
2023-04-23T08:39:57.461Z,99409.66
2023-04-23T08:42:37.894Z,99409.66
2023-04-23T08:45:06.478Z,99398.25
2023-04-23T08:47:35.067Z,99408.06
2023-04-23T08:50:05.373Z,99396.09
2023-04-23T08:52:35.166Z,99410.97
2023-04-23T08:55:04.577Z,99411.97
2023-04-23T08:57:32.612Z,99414.34
2023-04-23T09:00:01.388Z,99412.78
2023-04-23T09:02:29.814Z,99412.44
2023-04-23T09:04:59.607Z,99419.25
2023-04-23T09:07:28.387Z,99419.50
2023-04-23T09:09:56.440Z,99415.31
2023-04-23T09:12:24.081Z,99419.06
2023-04-23T09:14:51.924Z,99423.84
2023-04-23T09:17:19.461Z,99419.50
2023-04-23T09:19:47.184Z,99422.50
2023-04-23T09:22:14.556Z,99419.88
2023-04-23T09:24:44.177Z,99416.00
2023-04-23T09:27:11.606Z,99401.41
2023-04-23T09:29:39.024Z,99400.31
2023-04-23T09:32:09.111Z,99389.97
2023-04-23T09:34:37.692Z,99381.25
2023-04-23T09:37:07.832Z,99387.91
2023-04-23T09:39:35.771Z,99392.22
2023-04-23T09:42:08.343Z,99383.97
2023-04-23T09:44:35.949Z,99389.78
2023-04-23T09:47:09.526Z,99381.94
2023-04-23T09:49:46.989Z,99382.28
2023-04-23T09:52:16.251Z,99379.28
2023-04-23T09:54:46.180Z,99381.25
2023-04-23T09:57:15.573Z,99385.16
2023-04-23T09:59:48.820Z,99385.16
2023-04-23T10:02:17.560Z,99371.44
2023-04-23T10:04:45.350Z,99367.06
2023-04-23T10:09:44.903Z,99365.72
2023-04-23T10:12:31.442Z,99382.34
2023-04-23T10:15:01.648Z,99369.97
2023-04-23T10:17:29.261Z,99382.81
2023-04-23T10:19:56.656Z,99377.09
2023-04-23T10:22:25.681Z,99386.41
2023-04-23T10:24:57.247Z,99386.41
2023-04-23T10:27:44.170Z,99385.94
2023-04-23T10:30:17.819Z,99391.41
2023-04-23T10:32:46.300Z,99388.16
2023-04-23T10:35:13.720Z,99391.88
2023-04-23T10:37:41.707Z,99390.09
2023-04-23T10:40:12.734Z,99373.03
2023-04-23T10:42:40.971Z,99373.38
2023-04-23T10:45:24.193Z,99375.53
2023-04-23T10:47:54.214Z,99380.50
2023-04-23T10:50:24.302Z,99371.81
2023-04-23T10:52:53.642Z,99378.13
2023-04-23T10:55:23.886Z,99361.88
2023-04-23T10:58:02.229Z,99368.38
2023-04-23T11:00:45.367Z,99366.72
2023-04-23T11:03:31.423Z,99363.81
2023-04-23T11:05:59.239Z,99360.41
2023-04-23T11:08:26.943Z,99346.56
2023-04-23T11:10:57.169Z,99346.09
2023-04-23T11:13:25.951Z,99350.13
2023-04-23T11:16:22.295Z,99358.44
2023-04-23T11:18:57.206Z,99362.09
2023-04-23T11:21:56.934Z,99366.34
2023-04-23T11:24:24.541Z,99342.28
2023-04-23T11:26:54.357Z,99337.22
2023-04-23T11:29:22.973Z,99332.28
2023-04-23T11:32:01.681Z,99338.94
2023-04-23T11:34:31.114Z,99332.03
2023-04-23T11:37:00.687Z,99332.22
2023-04-23T11:39:28.276Z,99317.38
2023-04-23T11:41:56.999Z,99304.59
2023-04-23T11:44:24.429Z,99303.84
2023-04-23T11:46:53.264Z,99317.34
2023-04-23T11:49:21.665Z,99315.81
2023-04-23T11:51:49.519Z,99307.69
2023-04-23T11:54:16.941Z,99306.72
2023-04-23T11:56:44.762Z,99315.97
2023-04-23T11:59:12.198Z,99318.22
2023-04-23T12:01:44.099Z,99319.38
2023-04-23T12:04:14.694Z,99323.56
2023-04-23T12:06:44.342Z,99320.34
2023-04-23T12:09:12.950Z,99328.31
2023-04-23T12:11:42.295Z,99316.56
2023-04-23T12:14:11.045Z,99316.56
2023-04-23T12:16:41.990Z,99252.84
2023-04-23T12:19:11.685Z,99220.03
2023-04-23T12:21:56.003Z,99151.50
2023-04-23T12:24:24.404Z,99151.50
2023-04-23T12:26:55.905Z,99018.31
2023-04-23T12:29:25.651Z,99018.31
2023-04-23T12:31:54.437Z,99018.31
2023-04-23T12:34:22.399Z,99018.31
2023-04-23T12:36:52.918Z,99018.31
2023-04-23T12:39:22.117Z,99018.31
2023-04-23T12:41:51.610Z,99018.31
2023-04-23T12:44:20.395Z,99018.31
2023-04-23T12:46:57.701Z,99018.31
2023-04-23T12:49:26.920Z,99018.31
2023-04-23T12:52:01.184Z,99018.31
2023-04-23T12:54:31.166Z,99018.31
2023-04-23T12:56:59.238Z,99018.31
2023-04-23T12:59:29.914Z,99018.31
2023-04-23T13:02:02.356Z,99018.31
2023-04-23T13:04:31.704Z,99018.31
2023-04-23T13:07:03.055Z,99018.31
2023-04-23T13:09:30.650Z,99018.31
2023-04-23T13:11:59.802Z,99018.31
2023-04-23T13:14:27.854Z,99018.31
2023-04-23T13:16:55.726Z,99300.44
2023-04-23T13:19:26.238Z,99303.31
2023-04-23T13:21:55.592Z,99294.72
2023-04-23T13:24:24.315Z,99294.72
2023-04-23T13:26:51.675Z,99294.72
2023-04-23T13:29:19.059Z,99282.44
2023-04-23T13:31:46.583Z,99275.09
2023-04-23T13:34:14.067Z,99280.41
2023-04-23T13:36:42.080Z,99282.94
2023-04-23T13:39:10.998Z,99277.75
2023-04-23T13:41:40.982Z,99267.09
2023-04-23T13:44:08.489Z,99259.81
2023-04-23T13:46:36.377Z,99231.28
2023-04-23T13:49:03.775Z,99231.28
2023-04-23T13:51:34.715Z,99228.31
2023-04-23T13:54:03.411Z,99216.88
2023-04-23T13:56:31.610Z,99220.66
2023-04-23T13:59:18.420Z,99224.44
2023-04-23T14:01:49.392Z,99219.09
2023-04-23T14:04:16.957Z,99218.88
2023-04-23T14:06:44.462Z,99215.94
2023-04-23T14:09:12.366Z,99193.59
2023-04-23T14:11:41.299Z,99188.16
2023-04-23T14:14:10.041Z,99198.88
2023-04-23T14:16:40.128Z,99189.41
2023-04-23T14:19:07.618Z,99193.34
2023-04-23T14:21:36.053Z,99182.53
2023-04-23T14:24:09.627Z,99175.94
2023-04-23T14:26:47.935Z,99167.97
2023-04-23T14:29:29.935Z,99171.56
2023-04-23T14:31:59.824Z,99159.09
2023-04-23T14:34:27.722Z,99158.94
2023-04-23T14:36:55.299Z,99155.72
2023-04-23T14:39:23.314Z,99165.38
2023-04-23T14:41:50.881Z,99151.84
2023-04-23T14:44:18.317Z,99154.03
2023-04-23T14:46:49.771Z,99159.94
2023-04-23T14:49:17.158Z,99147.50
2023-04-23T14:51:44.587Z,99148.97
2023-04-23T14:54:12.042Z,99144.44
2023-04-23T14:56:39.412Z,99150.91
2023-04-23T14:59:06.791Z,99138.44
2023-04-23T15:01:34.318Z,99146.88
2023-04-23T15:04:03.175Z,99140.53
2023-04-23T15:06:30.849Z,99137.09
2023-04-23T15:08:59.305Z,99146.41
2023-04-23T15:11:26.748Z,99149.06
2023-04-23T15:14:01.818Z,99158.25
2023-04-23T15:16:47.689Z,99145.25
2023-04-23T15:19:18.780Z,99131.28
2023-04-23T15:21:47.000Z,99142.22
2023-04-23T15:24:14.996Z,99138.03
2023-04-23T15:26:42.521Z,99134.66
2023-04-23T15:29:10.494Z,99131.00
2023-04-23T15:31:38.434Z,99119.81
2023-04-23T15:34:08.708Z,99128.56
2023-04-23T15:36:38.423Z,99133.84
2023-04-23T15:39:06.846Z,99127.81
2023-04-23T15:41:36.146Z,99136.63
2023-04-23T15:44:05.275Z,99139.84
2023-04-23T15:46:32.650Z,99132.59
2023-04-23T15:49:00.118Z,99124.50
2023-04-23T15:51:27.505Z,99125.72
2023-04-23T15:53:57.202Z,99115.19
2023-04-23T15:56:24.585Z,99110.50
2023-04-23T15:58:53.384Z,99098.06
2023-04-23T16:01:20.879Z,99103.03
2023-04-23T16:04:01.864Z,99092.91
2023-04-23T16:06:36.047Z,99088.91
2023-04-23T16:09:08.176Z,99084.31
2023-04-23T16:11:36.463Z,99071.09
2023-04-23T16:14:04.607Z,99073.69
2023-04-23T16:16:32.205Z,99064.28
2023-04-23T16:19:01.668Z,99061.81
2023-04-23T16:21:29.137Z,99064.28
2023-04-23T16:23:56.764Z,99063.28
2023-04-23T16:26:25.585Z,99049.59
2023-04-23T16:29:05.703Z,99065.88
2023-04-23T16:31:39.251Z,99053.63
2023-04-23T16:34:06.777Z,99053.81
2023-04-23T16:36:34.464Z,99049.16
2023-04-23T16:39:01.858Z,99060.00
2023-04-23T16:41:31.486Z,99046.47
2023-04-23T16:43:58.886Z,99055.34
2023-04-23T16:46:30.133Z,99042.56
2023-04-23T16:48:57.762Z,99035.06
2023-04-23T16:51:28.315Z,99035.66
2023-04-23T16:53:55.860Z,99032.56
2023-04-23T16:56:23.776Z,99029.78
2023-04-23T16:58:52.478Z,99038.91
2023-04-23T17:01:20.157Z,99027.84
2023-04-23T17:03:47.651Z,99019.97
2023-04-23T17:06:25.569Z,99024.41
2023-04-23T17:08:53.281Z,99020.19
2023-04-23T17:11:20.759Z,99014.34
2023-04-23T17:13:48.276Z,98998.38
2023-04-23T17:16:17.036Z,98991.03
2023-04-23T17:18:44.508Z,98994.78
2023-04-23T17:21:12.425Z,98984.16
2023-04-23T17:23:40.066Z,98974.72
2023-04-23T17:26:07.667Z,98961.16
2023-04-23T17:28:35.558Z,98962.69
2023-04-23T17:31:03.898Z,98955.50
2023-04-23T17:33:34.720Z,98960.06
2023-04-23T17:36:02.124Z,98929.31
2023-04-23T17:38:29.652Z,98912.09
2023-04-23T17:40:59.284Z,98902.75
2023-04-23T17:43:27.247Z,98884.53
2023-04-23T17:45:54.652Z,98873.06
2023-04-23T17:48:23.251Z,98867.72
2023-04-23T17:50:53.277Z,98852.41
2023-04-23T17:53:20.945Z,98852.41
2023-04-23T17:55:48.383Z,98816.25
2023-04-23T17:58:15.864Z,98816.25
2023-04-23T18:00:45.362Z,98816.25
2023-04-23T18:03:16.418Z,98816.25
2023-04-23T18:05:44.896Z,98753.66
2023-04-23T18:08:16.149Z,98753.66
2023-04-23T18:10:45.284Z,98753.66
2023-04-23T18:13:13.362Z,98753.66
2023-04-23T18:15:41.952Z,98753.66
2023-04-23T18:18:09.630Z,98753.66
2023-04-23T18:20:38.437Z,98753.66
2023-04-23T18:23:06.604Z,98753.66
2023-04-23T18:25:35.946Z,98753.66
2023-04-23T18:28:04.422Z,98753.66
2023-04-23T18:30:31.881Z,98753.66
2023-04-23T18:33:08.621Z,98753.66
2023-04-23T18:35:36.072Z,98753.66
2023-04-23T18:38:07.661Z,98753.66
2023-04-23T18:40:36.395Z,98753.66
2023-04-23T18:43:06.010Z,98753.66
2023-04-23T18:45:33.635Z,98753.66
2023-04-23T18:48:06.148Z,98753.66
2023-04-23T18:50:42.164Z,98753.66
2023-04-23T18:53:09.825Z,98753.66
2023-04-23T18:55:38.545Z,98753.66
2023-04-23T18:58:06.007Z,98753.66
2023-04-23T19:00:33.509Z,98753.66
2023-04-23T19:03:06.471Z,98753.66
2023-04-23T19:05:36.907Z,98753.66
2023-04-23T19:08:06.755Z,98753.66
2023-04-23T19:10:36.049Z,98753.66
2023-04-23T19:13:05.898Z,98753.66
2023-04-23T19:15:33.351Z,98753.66
2023-04-23T19:18:01.392Z,98753.66
2023-04-23T19:20:30.925Z,98753.66
2023-04-23T19:22:58.393Z,98753.66
2023-04-23T19:25:25.786Z,98753.66
2023-04-23T19:27:53.449Z,98753.66
2023-04-23T19:30:22.142Z,98753.66
2023-04-23T19:32:49.543Z,98753.66
2023-04-23T19:35:17.594Z,98753.66
2023-04-23T19:37:45.151Z,98753.66
2023-04-23T19:40:15.794Z,98753.66
2023-04-23T19:42:43.431Z,98753.66
2023-04-23T19:45:11.624Z,98753.66
2023-04-23T19:47:40.459Z,98753.66
2023-04-23T19:50:09.664Z,98753.66
2023-04-23T19:52:37.797Z,98753.66
2023-04-23T19:55:05.995Z,98753.66
2023-04-23T19:57:33.470Z,98753.66
2023-04-23T20:00:00.817Z,98753.66
2023-04-23T20:02:28.244Z,98753.66
2023-04-23T20:04:58.358Z,98753.66
2023-04-23T20:07:31.806Z,98753.66
2023-04-23T20:09:59.286Z,98753.66
2023-04-23T20:12:28.043Z,98753.66
2023-04-23T20:14:55.713Z,98753.66
2023-04-23T20:17:23.519Z,98753.66
2023-04-23T20:19:53.789Z,98753.66
2023-04-23T20:22:22.514Z,98753.66
2023-04-23T20:24:49.923Z,98753.66
2023-04-23T20:27:17.312Z,98753.66
2023-04-23T20:29:44.837Z,98753.66
2023-04-23T20:32:13.598Z,98753.66
2023-04-23T20:34:41.534Z,98753.66
2023-04-23T20:37:09.153Z,98753.66
2023-04-23T20:39:38.239Z,98753.66
2023-04-23T20:42:08.688Z,98753.66
2023-04-23T20:44:36.243Z,98753.66
2023-04-23T20:47:08.276Z,98753.66
2023-04-23T20:49:35.789Z,98753.66
2023-04-23T20:52:03.313Z,98753.66
2023-04-23T20:54:30.928Z,98753.66
2023-04-23T20:57:02.834Z,98753.66
2023-04-23T20:59:30.949Z,98753.66
2023-04-23T21:01:58.414Z,98753.66
2023-04-23T21:04:25.917Z,98753.66
2023-04-23T21:06:53.457Z,98753.66
2023-04-23T21:09:21.031Z,98753.66
2023-04-23T21:11:50.556Z,98753.66
2023-04-23T21:14:19.342Z,98753.66
2023-04-23T21:16:46.772Z,98753.66
2023-04-23T21:19:14.160Z,98753.66
2023-04-23T21:21:41.596Z,98753.66
2023-04-23T21:24:08.959Z,98753.66
2023-04-23T21:26:36.515Z,98753.66
2023-04-23T21:29:04.661Z,98753.66
2023-04-23T21:31:40.921Z,98753.66
2023-04-23T21:34:08.377Z,98753.66
2023-04-23T21:36:35.811Z,98753.66
2023-04-23T21:39:03.203Z,98753.66
2023-04-23T21:41:30.768Z,98753.66
2023-04-23T21:43:58.183Z,98753.66
2023-04-23T21:46:25.732Z,98753.66
2023-04-23T21:48:54.478Z,98753.66
2023-04-23T21:51:25.788Z,98753.66
2023-04-23T21:53:53.329Z,98753.66
2023-04-23T21:56:21.486Z,98753.66
2023-04-23T21:58:48.939Z,98753.66
2023-04-23T22:01:17.328Z,98753.66
2023-04-23T22:03:46.500Z,98753.66
2023-04-23T22:06:17.623Z,98753.66
2023-04-23T22:08:46.198Z,98753.66
2023-04-23T22:11:14.310Z,98753.66
2023-04-23T22:13:41.800Z,98753.66
2023-04-23T22:16:24.417Z,98753.66
2023-04-23T22:18:54.718Z,98753.66
2023-04-23T22:21:23.473Z,98753.66
2023-04-23T22:23:50.985Z,98753.66
2023-04-23T22:26:25.268Z,98753.66
2023-04-23T22:28:54.705Z,98753.66
2023-04-23T22:31:24.258Z,98753.66
2023-04-23T22:33:51.682Z,98753.66
2023-04-23T22:36:20.673Z,98753.66
2023-04-23T22:38:49.574Z,98753.66
2023-04-23T22:41:17.125Z,98753.66
2023-04-23T22:43:44.503Z,98753.66
2023-04-23T22:46:11.972Z,98753.66
2023-04-23T22:48:43.897Z,98753.66
2023-04-23T22:51:11.868Z,98753.66
2023-04-23T22:53:39.295Z,98753.66
2023-04-23T22:56:08.206Z,98753.66
2023-04-23T22:58:37.032Z,98753.66
2023-04-23T23:01:04.659Z,98753.66
2023-04-23T23:03:32.763Z,98753.66
2023-04-23T23:06:00.252Z,98753.66
2023-04-23T23:08:28.916Z,98753.66
2023-04-23T23:10:56.455Z,98753.66
2023-04-23T23:13:25.671Z,98753.66
2023-04-23T23:15:53.042Z,98753.66
2023-04-23T23:18:20.468Z,98753.66
2023-04-23T23:20:48.138Z,98753.66
2023-04-23T23:23:15.591Z,98753.66
2023-04-23T23:25:45.955Z,98753.66
2023-04-23T23:28:13.349Z,98753.66
2023-04-23T23:30:43.476Z,98753.66
2023-04-23T23:33:10.931Z,98753.66
2023-04-23T23:35:38.618Z,98753.66
2023-04-23T23:38:06.147Z,98753.66
2023-04-23T23:40:33.523Z,98753.66
2023-04-23T23:43:00.926Z,98753.66
2023-04-23T23:45:28.609Z,98753.66
2023-04-23T23:48:00.222Z,98753.66
2023-04-23T23:50:27.888Z,98753.66
2023-04-23T23:52:55.359Z,98753.66
2023-04-23T23:55:22.756Z,98753.66
2023-04-23T23:57:50.220Z,98753.66
